Time;durP1;ratioP1;P1;durP2;ratioP2;P2;SDS_P1;SDS_P2;PMS_P1;PMS_P2;Temp;Humidity;BMP_temperature;BMP_pressure;BME280_temperature;BME280_humidity;BME280_pressure;Samples;Min_cycle;Max_cycle;Signal;HPM_P1;HPM_P2
2023/04/29 00:02:19;;;;;;;;;;;;;;;16.47;50.94;100949.72;5031826;28;1115;-42
2023/04/29 00:04:45;;;;;;;;;;;;;;;16.23;51.18;100947.41;5028240;28;1975;-39
2023/04/29 00:07:14;;;;;;;;;;;;;;;16.10;51.67;100942.41;5038062;28;1030;-43
2023/04/29 00:09:39;;;;;;;;;;;;;;;17.10;49.20;100939.44;5031079;28;1163;-44
2023/04/29 00:12:05;;;;;;;;;;;;;;;17.15;48.78;100935.06;5032435;28;1122;-45
2023/04/29 00:14:30;;;;;;;;;;;;;;;16.51;50.76;100942.56;5038172;28;1122;-47
2023/04/29 00:16:56;;;;;;;;;;;;;;;16.22;51.48;100935.59;5038132;28;1058;-45
2023/04/29 00:19:22;;;;;;;;;;;;;;;17.31;48.93;100941.41;5037862;28;1055;-45
2023/04/29 00:21:48;;;;;;;;;;;;;;;17.02;49.41;100940.00;5032332;28;1099;-42
2023/04/29 00:24:13;;;;;;;;;;;;;;;16.46;50.89;100942.56;5031259;28;1914;-41
2023/04/29 00:26:40;;;;;;;;;;;;;;;16.18;51.29;100941.88;5018865;28;1194;-43
2023/04/29 00:29:05;;;;;;;;;;;;;;;16.70;50.33;100940.16;5038071;28;1086;-43
2023/04/29 00:31:31;;;;;;;;;;;;;;;17.24;48.53;100942.50;5036966;28;1130;-43
2023/04/29 00:33:57;;;;;;;;;;;;;;;16.48;50.83;100937.63;5025236;28;1059;-45
2023/04/29 00:36:22;;;;;;;;;;;;;;;16.30;51.21;100942.50;5038112;28;1118;-44
2023/04/29 00:38:48;;;;;;;;;;;;;;;17.69;47.88;100942.75;5038162;28;1111;-45
2023/04/29 00:41:13;;;;;;;;;;;;;;;16.71;50.14;100931.66;5037789;28;1107;-45
2023/04/29 00:43:39;;;;;;;;;;;;;;;16.31;51.12;100935.91;5031316;28;1177;-47
2023/04/29 00:46:05;;;;;;;;;;;;;;;16.07;51.75;100943.75;5030737;28;1910;-43
2023/04/29 00:48:31;;;;;;;;;;;;;;;16.82;49.93;100942.69;5024647;28;1194;-39
2023/04/29 00:50:57;;;;;;;;;;;;;;;17.41;48.27;100950.47;5024875;28;1115;-43
2023/04/29 00:53:22;;;;;;;;;;;;;;;16.56;50.36;100940.69;5029896;28;1179;-46
2023/04/29 00:55:50;;;;;;;;;;;;;;;16.24;51.09;100943.56;5029369;28;1032;-45
2023/04/29 00:58:16;;;;;;;;;;;;;;;16.41;51.09;100935.97;5009466;28;1045;-43
2023/04/29 01:00:42;;;;;;;;;;;;;;;17.73;47.51;100941.09;5023611;28;1170;-43
2023/04/29 01:03:08;;;;;;;;;;;;;;;16.78;49.86;100939.63;5029337;28;1131;-44
2023/04/29 01:05:34;;;;;;;;;;;;;;;16.37;50.97;100943.09;5031345;28;1985;-42
2023/04/29 01:08:10;;;;;;;;;;;;;;;16.98;49.78;100933.38;5035659;28;1975;-41
2023/04/29 01:11:02;;;;;;;;;;;;;;;17.21;48.86;100939.47;5036058;28;1138;-44
2023/04/29 01:13:29;;;;;;;;;;;;;;;16.53;50.36;100934.91;5022106;28;1096;-43
2023/04/29 01:16:02;;;;;;;;;;;;;;;16.30;50.87;100926.03;5034474;28;1283;-44
2023/04/29 01:18:29;;;;;;;;;;;;;;;17.47;48.36;100928.47;5023405;28;1381;-42
2023/04/29 01:20:55;;;;;;;;;;;;;;;16.91;49.56;100921.84;5035384;28;1636;-47
2023/04/29 01:23:25;;;;;;;;;;;;;;;16.47;50.62;100930.50;5029502;28;1202;-42
2023/04/29 01:25:50;;;;;;;;;;;;;;;16.74;50.17;100933.84;5037185;28;1906;-44
2023/04/29 01:29:02;;;;;;;;;;;;;;;17.46;47.95;100935.91;5036553;28;1172;-46
2023/04/29 01:31:31;;;;;;;;;;;;;;;16.59;50.44;100931.06;5019806;28;1281;-43
2023/04/29 01:34:03;;;;;;;;;;;;;;;16.28;51.02;100927.41;5019335;28;1332;-44
2023/04/29 01:36:47;;;;;;;;;;;;;;;16.10;51.54;100934.16;5022661;28;1300;-44
2023/04/29 01:39:14;;;;;;;;;;;;;;;17.65;47.71;100932.59;5035680;28;1251;-45
2023/04/29 01:41:50;;;;;;;;;;;;;;;16.75;49.84;100930.03;5000171;28;1209;-45
2023/04/29 01:44:26;;;;;;;;;;;;;;;16.32;51.11;100928.50;5018373;28;1973;-44
2023/04/29 01:46:52;;;;;;;;;;;;;;;16.84;49.84;100932.25;5035073;28;1076;-42
2023/04/29 01:49:25;;;;;;;;;;;;;;;17.47;48.00;100942.22;5031354;28;1478;-42
2023/04/29 01:51:51;;;;;;;;;;;;;;;16.68;49.94;100940.44;5025013;28;1067;-42
2023/04/29 01:54:16;;;;;;;;;;;;;;;16.31;50.89;100938.66;5033938;28;1301;-42
2023/04/29 01:56:43;;;;;;;;;;;;;;;16.97;49.65;100936.41;5023158;28;1270;-43
2023/04/29 01:59:21;;;;;;;;;;;;;;;17.36;48.31;100942.22;5019554;28;1917;-43
2023/04/29 02:01:53;;;;;;;;;;;;;;;16.61;50.06;100939.88;5026545;28;1040;-45
2023/04/29 02:04:19;;;;;;;;;;;;;;;16.34;50.95;100940.03;5028177;28;1981;-47
2023/04/29 02:06:45;;;;;;;;;;;;;;;16.11;51.18;100938.56;5025486;28;1222;-42
2023/04/29 02:09:11;;;;;;;;;;;;;;;16.91;49.77;100941.91;5034219;28;1240;-46
2023/04/29 02:11:38;;;;;;;;;;;;;;;17.15;48.99;100937.81;5024576;28;1692;-42
2023/04/29 02:14:04;;;;;;;;;;;;;;;16.54;50.50;100939.31;5029859;28;988;-43
2023/04/29 02:16:29;;;;;;;;;;;;;;;16.23;51.32;100933.69;5025670;28;1424;-46
2023/04/29 02:19:01;;;;;;;;;;;;;;;17.72;47.70;100928.44;5022112;28;1179;-44
2023/04/29 02:21:26;;;;;;;;;;;;;;;16.81;49.52;100935.53;5036040;28;844;-43
2023/04/29 02:23:53;;;;;;;;;;;;;;;16.34;50.83;100927.16;5036154;28;996;-42
2023/04/29 02:26:22;;;;;;;;;;;;;;;16.39;50.96;100934.56;5022863;28;1913;-45
2023/04/29 02:28:49;;;;;;;;;;;;;;;17.74;47.54;100929.00;5033986;28;1192;-46
2023/04/29 02:31:14;;;;;;;;;;;;;;;16.76;49.79;100933.59;5035664;28;1059;-43
2023/04/29 02:33:43;;;;;;;;;;;;;;;16.39;50.96;100935.38;5021401;28;1206;-42
2023/04/29 02:36:09;;;;;;;;;;;;;;;16.19;51.33;100936.13;5025403;28;1202;-40
2023/04/29 02:38:34;;;;;;;;;;;;;;;17.45;48.26;100934.25;5035856;28;1123;-43
2023/04/29 02:41:00;;;;;;;;;;;;;;;17.12;48.98;100925.44;5034958;28;1329;-46
2023/04/29 02:43:25;;;;;;;;;;;;;;;16.54;50.45;100931.06;5034730;28;1597;-43
2023/04/29 02:45:51;;;;;;;;;;;;;;;16.26;51.27;100933.16;5022209;28;1978;-45
2023/04/29 02:48:17;;;;;;;;;;;;;;;17.01;49.63;100930.13;5035732;28;1102;-45
2023/04/29 02:50:42;;;;;;;;;;;;;;;17.40;48.29;100937.84;5034705;28;1127;-45
2023/04/29 02:53:08;;;;;;;;;;;;;;;16.72;50.00;100932.50;5024534;28;1308;-45
2023/04/29 02:55:33;;;;;;;;;;;;;;;16.38;50.62;100927.44;5034733;28;1521;-44
2023/04/29 02:58:04;;;;;;;;;;;;;;;16.21;51.11;100933.13;5033833;28;1612;-43
2023/04/29 03:00:30;;;;;;;;;;;;;;;17.68;47.56;100929.28;5033225;28;1332;-45
2023/04/29 03:02:56;;;;;;;;;;;;;;;17.05;48.91;100935.88;5034553;28;1111;-46
2023/04/29 03:05:21;;;;;;;;;;;;;;;16.49;50.49;100939.28;5012184;28;1918;-44
2023/04/29 03:07:47;;;;;;;;;;;;;;;16.22;51.15;100932.03;5030805;28;1452;-42
2023/04/29 03:10:13;;;;;;;;;;;;;;;16.76;49.86;100944.59;5033858;28;901;-44
2023/04/29 03:12:38;;;;;;;;;;;;;;;17.53;48.03;100930.09;5034056;28;1186;-40
2023/04/29 03:15:05;;;;;;;;;;;;;;;16.66;50.14;100933.56;5035615;28;1063;-43
2023/04/29 03:17:31;;;;;;;;;;;;;;;16.35;50.94;100948.00;5033778;28;1202;-42
2023/04/29 03:19:57;;;;;;;;;;;;;;;17.16;49.10;100943.03;5034434;28;1152;-46
2023/04/29 03:22:22;;;;;;;;;;;;;;;17.22;48.32;100938.34;5038135;28;1004;-43
2023/04/29 03:24:48;;;;;;;;;;;;;;;16.58;50.03;100943.16;5029166;28;1985;-48
2023/04/29 03:27:13;;;;;;;;;;;;;;;16.29;50.79;100940.84;5037906;28;1138;-47
2023/04/29 03:29:39;;;;;;;;;;;;;;;16.12;51.40;100937.44;5037611;28;1080;-42
2023/04/29 03:32:05;;;;;;;;;;;;;;;17.27;48.82;100944.69;5024138;28;1278;-46
2023/04/29 03:34:31;;;;;;;;;;;;;;;17.12;48.66;100944.66;5027882;28;1196;-45
2023/04/29 03:37:18;;;;;;;;;;;;;;;16.43;50.52;100947.47;5031372;28;1576;-48
2023/04/29 03:39:49;;;;;;;;;;;;;;;16.20;51.17;100946.03;5035713;28;1554;-47
2023/04/29 03:42:15;;;;;;;;;;;;;;;17.68;47.61;100938.34;5032587;28;1107;-48
2023/04/29 03:44:40;;;;;;;;;;;;;;;17.02;48.86;100941.91;5030827;28;1914;-46
2023/04/29 03:47:07;;;;;;;;;;;;;;;16.48;50.28;100954.09;5036408;28;1719;-44
2023/04/29 03:49:32;;;;;;;;;;;;;;;16.24;50.79;100947.16;5036576;28;1253;-45
2023/04/29 03:51:58;;;;;;;;;;;;;;;16.02;51.55;100941.81;5037202;28;1195;-46
2023/04/29 03:54:24;;;;;;;;;;;;;;;17.56;47.74;100948.81;5025580;28;1425;-47
2023/04/29 03:56:50;;;;;;;;;;;;;;;17.00;48.81;100941.34;5037160;28;1202;-47
2023/04/29 03:59:15;;;;;;;;;;;;;;;16.43;50.51;100947.47;5023136;28;1159;-48
2023/04/29 04:01:41;;;;;;;;;;;;;;;16.37;50.54;100948.56;5017913;28;1352;-49
2023/04/29 04:04:06;;;;;;;;;;;;;;;17.74;47.00;100942.75;5018001;28;1122;-50
2023/04/29 04:06:34;;;;;;;;;;;;;;;16.83;49.30;100949.81;5017183;28;1906;-46
2023/04/29 04:09:00;;;;;;;;;;;;;;;16.40;50.50;100953.50;5019682;28;1309;-44
2023/04/29 04:11:28;;;;;;;;;;;;;;;16.62;50.29;100951.66;5016787;28;1252;-48
2023/04/29 04:13:57;;;;;;;;;;;;;;;17.57;47.38;100943.03;5017607;28;1163;-52
2023/04/29 04:16:23;;;;;;;;;;;;;;;16.72;49.63;100948.97;5017080;28;1216;-46
2023/04/29 04:18:48;;;;;;;;;;;;;;;16.39;50.39;100956.53;5018310;28;1072;-46
2023/04/29 04:21:14;;;;;;;;;;;;;;;17.26;48.49;100951.31;5016896;28;1251;-46
2023/04/29 04:23:44;;;;;;;;;;;;;;;17.18;48.53;100951.84;5016854;28;1242;-47
2023/04/29 04:26:13;;;;;;;;;;;;;;;16.54;50.23;100947.53;5016928;28;1980;-48
2023/04/29 04:29:10;;;;;;;;;;;;;;;16.27;50.73;100947.69;5001977;28;1501;-47
2023/04/29 04:32:11;;;;;;;;;;;;;;;17.17;48.86;100952.13;5010424;28;1247;-46
2023/04/29 04:34:41;;;;;;;;;;;;;;;17.04;48.85;100951.53;5016012;28;1266;-47
2023/04/29 04:37:07;;;;;;;;;;;;;;;16.51;50.11;100953.53;5019580;28;1464;-47
2023/04/29 04:39:33;;;;;;;;;;;;;;;16.22;50.88;100954.81;5016894;28;1282;-49
2023/04/29 04:41:59;;;;;;;;;;;;;;;17.17;48.72;100955.69;5016721;28;1171;-49
2023/04/29 04:44:27;;;;;;;;;;;;;;;17.26;48.14;100955.94;5016576;28;2005;-49
2023/04/29 04:47:01;;;;;;;;;;;;;;;16.57;50.10;100963.47;5021624;28;1255;-44
2023/04/29 04:49:45;;;;;;;;;;;;;;;16.22;50.70;100954.81;5026635;28;1077;-47
2023/04/29 04:52:11;;;;;;;;;;;;;;;17.61;47.43;100946.06;5016896;28;1318;-49
2023/04/29 04:54:37;;;;;;;;;;;;;;;16.77;49.68;100954.47;5016978;28;1389;-47
2023/04/29 04:57:13;;;;;;;;;;;;;;;16.36;50.57;100952.41;5019078;28;1411;-48
2023/04/29 04:59:39;;;;;;;;;;;;;;;16.19;51.06;100960.81;5023662;28;1444;-50
2023/04/29 05:02:05;;;;;;;;;;;;;;;16.12;51.17;100956.66;5016769;28;1227;-45
2023/04/29 05:04:30;;;;;;;;;;;;;;;17.85;47.31;100953.72;5016524;28;1987;-47
2023/04/29 05:06:56;;;;;;;;;;;;;;;16.66;49.73;100952.78;5016485;28;1322;-46
2023/04/29 05:09:25;;;;;;;;;;;;;;;16.22;49.71;100951.25;5018308;28;1361;-49
2023/04/29 05:11:51;;;;;;;;;;;;;;;16.02;49.09;100966.50;5016183;28;1341;-46
2023/04/29 05:14:17;;;;;;;;;;;;;;;17.26;48.77;100953.19;5015653;28;1243;-47
2023/04/29 05:16:45;;;;;;;;;;;;;;;16.42;49.55;100972.47;5017659;28;1096;-47
2023/04/29 05:19:11;;;;;;;;;;;;;;;18.14;46.95;100967.72;5016161;28;1409;-46
2023/04/29 05:21:38;;;;;;;;;;;;;;;17.24;48.64;100956.22;5017151;28;1247;-47
2023/04/29 05:24:06;;;;;;;;;;;;;;;16.67;49.10;100966.25;5016046;28;1322;-47
2023/04/29 05:26:31;;;;;;;;;;;;;;;16.42;48.14;100962.31;5015825;28;1970;-47
2023/04/29 05:29:00;;;;;;;;;;;;;;;16.26;47.79;100968.81;5015825;28;1251;-46
2023/04/29 05:31:27;;;;;;;;;;;;;;;17.14;48.88;100963.63;5015910;28;1219;-44
2023/04/29 05:33:54;;;;;;;;;;;;;;;16.40;49.40;100969.97;5016959;28;1240;-47
2023/04/29 05:36:20;;;;;;;;;;;;;;;16.47;49.35;100964.25;5016240;28;1254;-44
2023/04/29 05:38:45;;;;;;;;;;;;;;;16.71;49.38;100958.31;5007835;28;1250;-49
2023/04/29 05:41:12;;;;;;;;;;;;;;;16.29;48.94;100959.25;4996881;28;1238;-45
2023/04/29 05:43:46;;;;;;;;;;;;;;;16.18;47.96;100947.38;4995491;28;1341;-48
2023/04/29 05:46:13;;;;;;;;;;;;;;;16.98;48.48;100951.81;5014119;28;2006;-49
2023/04/29 05:48:38;;;;;;;;;;;;;;;16.50;48.84;100946.44;5018034;28;1170;-50
2023/04/29 05:51:05;;;;;;;;;;;;;;;16.16;48.64;100946.81;5014853;28;1239;-45
2023/04/29 05:53:32;;;;;;;;;;;;;;;16.49;48.33;100950.25;5015338;28;1433;-46
2023/04/29 05:55:57;;;;;;;;;;;;;;;17.28;48.24;100957.34;5015280;28;1392;-47
2023/04/29 05:58:24;;;;;;;;;;;;;;;16.43;49.12;100955.72;5018807;28;1294;-47
2023/04/29 06:00:50;;;;;;;;;;;;;;;17.70;47.77;100941.66;5015080;28;1613;-49
2023/04/29 06:03:20;;;;;;;;;;;;;;;16.98;49.22;100940.81;5014891;28;1208;-47
2023/04/29 06:05:49;;;;;;;;;;;;;;;16.47;48.74;100945.03;5015132;28;1971;-49
2023/04/29 06:08:29;;;;;;;;;;;;;;;16.19;47.99;100946.28;5014961;28;1970;-47
2023/04/29 06:11:13;;;;;;;;;;;;;;;17.43;48.31;100951.03;5016761;28;1347;-47
2023/04/29 06:13:39;;;;;;;;;;;;;;;16.69;49.02;100949.50;5014754;28;1184;-45
2023/04/29 06:16:05;;;;;;;;;;;;;;;17.86;47.74;100947.94;5015240;28;1251;-47
2023/04/29 06:18:32;;;;;;;;;;;;;;;17.93;47.87;100947.69;5014861;28;2173;-47
2023/04/29 06:20:58;;;;;;;;;;;;;;;16.99;48.89;100948.78;5015092;28;1333;-47
2023/04/29 06:23:24;;;;;;;;;;;;;;;16.69;48.40;100944.84;5016915;28;1247;-47
2023/04/29 06:25:50;;;;;;;;;;;;;;;16.50;47.85;100954.66;4998703;28;2016;-49
2023/04/29 06:28:16;;;;;;;;;;;;;;;16.33;47.40;100949.38;5031163;28;1318;-47
2023/04/29 06:30:42;;;;;;;;;;;;;;;16.29;47.04;100951.00;5015879;28;1175;-46
2023/04/29 06:33:08;;;;;;;;;;;;;;;17.37;48.21;100943.84;5015027;28;1323;-49
2023/04/29 06:35:37;;;;;;;;;;;;;;;16.60;48.86;100952.75;5014315;28;1364;-46
2023/04/29 06:38:03;;;;;;;;;;;;;;;16.39;48.14;100951.84;5016656;28;1080;-45
2023/04/29 06:40:34;;;;;;;;;;;;;;;17.02;48.49;100942.72;5016327;28;1090;-47
2023/04/29 06:43:15;;;;;;;;;;;;;;;16.43;48.82;100947.47;5003230;28;1172;-49
2023/04/29 06:45:46;;;;;;;;;;;;;;;16.35;47.85;100945.25;5015016;28;1981;-46
2023/04/29 06:48:20;;;;;;;;;;;;;;;16.16;47.34;100946.81;5021038;28;1162;-48
2023/04/29 06:50:56;;;;;;;;;;;;;;;17.33;47.71;100953.75;5016091;28;909;-46
2023/04/29 06:53:22;;;;;;;;;;;;;;;16.55;48.52;100949.16;5014958;28;1139;-48
2023/04/29 06:55:47;;;;;;;;;;;;;;;16.23;48.06;100941.94;5016627;28;1139;-47
2023/04/29 06:58:13;;;;;;;;;;;;;;;17.39;47.59;100940.84;5020863;28;1043;-48
2023/04/29 07:00:39;;;;;;;;;;;;;;;16.56;48.63;100931.63;5020440;28;1143;-50
2023/04/29 07:03:05;;;;;;;;;;;;;;;16.55;48.77;100935.44;5020211;28;1091;-47
2023/04/29 07:05:30;;;;;;;;;;;;;;;17.14;48.20;100938.91;5018754;28;1977;-47
2023/04/29 07:07:56;;;;;;;;;;;;;;;16.57;48.37;100941.50;5018839;28;1250;-45
2023/04/29 07:10:25;;;;;;;;;;;;;;;16.86;48.89;100938.31;5023614;28;1035;-47
2023/04/29 07:12:53;;;;;;;;;;;;;;;16.77;48.52;100951.72;5018877;28;1151;-48
2023/04/29 07:15:20;;;;;;;;;;;;;;;17.26;48.16;100948.56;5020065;28;1161;-49
2023/04/29 07:17:46;;;;;;;;;;;;;;;17.98;47.49;100950.44;5020057;28;1055;-46
2023/04/29 07:20:12;;;;;;;;;;;;;;;16.91;49.02;100946.56;5018540;28;1186;-47
2023/04/29 07:22:38;;;;;;;;;;;;;;;16.61;48.42;100953.59;5056755;28;1245;-47
2023/04/29 07:25:04;;;;;;;;;;;;;;;16.57;47.75;100938.75;5025869;28;1910;-49
2023/04/29 07:27:29;;;;;;;;;;;;;;;16.32;47.50;100929.31;5018061;28;1401;-49
2023/04/29 07:29:55;;;;;;;;;;;;;;;16.42;47.66;100945.84;5019954;28;1100;-46
2023/04/29 07:32:21;;;;;;;;;;;;;;;17.10;48.26;100933.97;5020010;28;1004;-49
2023/04/29 07:34:47;;;;;;;;;;;;;;;16.52;48.48;100933.25;5023014;28;1337;-46
2023/04/29 07:37:13;;;;;;;;;;;;;;;16.20;47.99;100936.94;5021516;28;1190;-49
2023/04/29 07:39:41;;;;;;;;;;;;;;;17.39;47.46;100936.19;5018130;28;1347;-49
2023/04/29 07:42:07;;;;;;;;;;;;;;;16.57;48.44;100944.25;5018038;28;1173;-46
2023/04/29 07:44:33;;;;;;;;;;;;;;;16.35;47.98;100942.50;5018201;28;1910;-45
2023/04/29 07:46:58;;;;;;;;;;;;;;;17.38;47.92;100944.69;5018815;28;1339;-46
2023/04/29 07:49:25;;;;;;;;;;;;;;;16.85;48.63;100942.13;5016044;28;1206;-48
2023/04/29 07:51:50;;;;;;;;;;;;;;;16.53;48.04;100935.72;5018083;28;1115;-48
2023/04/29 07:54:16;;;;;;;;;;;;;;;16.34;47.77;100938.13;5019356;28;1084;-48
2023/04/29 07:56:41;;;;;;;;;;;;;;;16.34;47.82;100929.91;5019346;28;988;-49
2023/04/29 07:59:07;;;;;;;;;;;;;;;17.36;47.73;100925.75;5024828;28;1171;-46
2023/04/29 08:01:32;;;;;;;;;;;;;;;16.61;48.23;100931.63;5017680;28;2288;-47
2023/04/29 08:03:58;;;;;;;;;;;;;;;18.02;46.95;100929.53;5017571;28;1100;-49
2023/04/29 08:06:26;;;;;;;;;;;;;;;17.18;48.53;100929.00;5017205;28;1914;-49
2023/04/29 08:08:51;;;;;;;;;;;;;;;16.69;48.60;100928.38;5018957;28;1146;-48
2023/04/29 08:11:17;;;;;;;;;;;;;;;16.55;47.65;100925.31;5017365;28;1351;-49
2023/04/29 08:13:43;;;;;;;;;;;;;;;16.48;47.05;100912.91;5018686;28;1210;-47
2023/04/29 08:16:09;;;;;;;;;;;;;;;16.28;47.01;100914.50;5032300;28;1190;-46
2023/04/29 08:18:35;;;;;;;;;;;;;;;16.33;47.07;100925.50;5017498;28;1333;-47
2023/04/29 08:21:01;;;;;;;;;;;;;;;17.04;47.95;100924.06;5017681;28;1117;-44
2023/04/29 08:23:27;;;;;;;;;;;;;;;16.48;48.29;100904.69;5026815;28;1118;-46
2023/04/29 08:25:54;;;;;;;;;;;;;;;16.23;47.65;100904.31;5008479;28;1997;-48
2023/04/29 08:28:20;;;;;;;;;;;;;;;17.60;47.41;100915.00;5018648;28;1044;-46
2023/04/29 08:30:46;;;;;;;;;;;;;;;16.72;48.40;100900.38;5018910;28;1171;-48
2023/04/29 08:33:11;;;;;;;;;;;;;;;16.35;48.13;100917.00;5018562;28;1122;-48
2023/04/29 08:35:37;;;;;;;;;;;;;;;17.80;47.42;100902.31;5026670;28;1032;-46
2023/04/29 08:38:05;;;;;;;;;;;;;;;16.81;48.53;100897.09;5029636;28;1197;-47
2023/04/29 08:40:44;;;;;;;;;;;;;;;16.50;48.24;100899.75;5018188;28;1135;-47
2023/04/29 08:43:10;;;;;;;;;;;;;;;16.93;48.40;100906.75;5018221;28;1078;-45
2023/04/29 08:45:35;;;;;;;;;;;;;;;16.98;48.31;100902.34;5016532;28;1902;-49
2023/04/29 08:48:02;;;;;;;;;;;;;;;16.48;48.23;100901.94;5019162;28;841;-47
2023/04/29 08:50:27;;;;;;;;;;;;;;;16.37;47.53;100893.69;5018156;28;1031;-43
2023/04/29 08:52:53;;;;;;;;;;;;;;;16.76;48.07;100892.41;5018462;28;1040;-45
2023/04/29 08:55:19;;;;;;;;;;;;;;;16.83;48.47;100898.47;5031053;28;1143;-47
2023/04/29 08:57:45;;;;;;;;;;;;;;;16.47;47.94;100892.88;5018088;28;1142;-49
2023/04/29 09:00:10;;;;;;;;;;;;;;;16.30;47.67;100898.59;5020203;28;1201;-50
2023/04/29 09:02:43;;;;;;;;;;;;;;;16.98;47.90;100886.69;5017003;28;1047;-49
2023/04/29 09:05:10;;;;;;;;;;;;;;;16.47;48.15;100892.06;5014055;28;1909;-48
2023/04/29 09:07:36;;;;;;;;;;;;;;;17.41;47.60;100879.00;5018265;28;1051;-50
2023/04/29 09:10:05;;;;;;;;;;;;;;;16.88;48.34;100876.50;5017858;28;1186;-50
2023/04/29 09:12:30;;;;;;;;;;;;;;;16.55;47.78;100873.16;5021129;28;956;-50
2023/04/29 09:14:56;;;;;;;;;;;;;;;16.39;47.33;100874.19;5017591;28;1139;-49
2023/04/29 09:17:37;;;;;;;;;;;;;;;17.31;47.24;100869.94;5017389;28;1406;-47
2023/04/29 09:20:14;;;;;;;;;;;;;;;16.47;48.00;100868.19;5016703;28;1224;-47
2023/04/29 09:22:46;;;;;;;;;;;;;;;16.68;47.96;100865.50;5016068;28;1025;-45
2023/04/29 09:25:12;;;;;;;;;;;;;;;17.03;47.89;100861.97;5026463;28;1989;-47
2023/04/29 09:27:37;;;;;;;;;;;;;;;16.56;48.41;100854.75;5018539;28;1083;-45
2023/04/29 09:30:03;;;;;;;;;;;;;;;18.40;45.93;100852.84;5029983;28;1099;-49
2023/04/29 09:32:28;;;;;;;;;;;;;;;17.07;48.27;100849.34;5030086;28;1071;-49
2023/04/29 09:34:54;;;;;;;;;;;;;;;16.73;47.88;100855.34;5017365;28;1107;-46
2023/04/29 09:37:23;;;;;;;;;;;;;;;16.50;47.47;100842.13;5032128;28;1001;-48
2023/04/29 09:39:49;;;;;;;;;;;;;;;17.41;47.58;100840.50;5016482;28;1142;-49
2023/04/29 09:42:14;;;;;;;;;;;;;;;16.92;47.95;100822.69;5017442;28;1161;-45
2023/04/29 09:44:40;;;;;;;;;;;;;;;16.60;47.61;100831.16;5016982;28;1910;-44
2023/04/29 09:47:06;;;;;;;;;;;;;;;17.23;47.97;100821.84;5016948;28;1017;-49
2023/04/29 09:49:34;;;;;;;;;;;;;;;16.82;48.15;100839.13;5017054;28;1188;-48
2023/04/29 09:52:00;;;;;;;;;;;;;;;16.59;47.63;100821.25;5017279;28;1075;-49
2023/04/29 09:54:29;;;;;;;;;;;;;;;16.40;47.21;100819.03;5017105;28;1214;-48
2023/04/29 09:56:56;;;;;;;;;;;;;;;17.56;46.92;100811.34;5016643;28;1131;-49
2023/04/29 09:59:21;;;;;;;;;;;;;;;16.72;48.24;100811.69;5016883;28;1242;-48
2023/04/29 10:01:47;;;;;;;;;;;;;;;16.46;47.45;100808.88;5015226;28;1313;-48
2023/04/29 10:04:13;;;;;;;;;;;;;;;16.39;47.00;100814.63;5016239;28;1155;-51
2023/04/29 10:06:38;;;;;;;;;;;;;;;16.50;47.23;100801.75;5016170;28;1918;-50
2023/04/29 10:09:05;;;;;;;;;;;;;;;16.82;47.82;100806.19;5015068;28;1286;-48
2023/04/29 10:11:30;;;;;;;;;;;;;;;16.66;48.13;100801.78;5016312;28;1200;-51
2023/04/29 10:13:56;;;;;;;;;;;;;;;18.28;45.94;100791.78;5015334;28;1228;-49
2023/04/29 10:16:28;;;;;;;;;;;;;;;17.03;48.02;100785.06;5016358;28;1183;-48
2023/04/29 10:18:55;;;;;;;;;;;;;;;16.58;48.04;100792.19;5016410;28;1187;-51
2023/04/29 10:21:24;;;;;;;;;;;;;;;16.51;47.39;100777.88;5016728;28;1246;-50
2023/04/29 10:23:49;;;;;;;;;;;;;;;17.38;47.53;100790.78;5014709;28;1251;-50
2023/04/29 10:26:15;;;;;;;;;;;;;;;16.67;48.27;100793.25;5015170;28;1973;-48
2023/04/29 10:28:40;;;;;;;;;;;;;;;16.43;47.69;100792.97;5015782;28;1337;-51
2023/04/29 10:31:07;;;;;;;;;;;;;;;17.26;47.72;100788.31;5014959;28;1243;-47
2023/04/29 10:33:32;;;;;;;;;;;;;;;16.82;47.96;100784.22;5015826;28;1203;-49
2023/04/29 10:35:59;;;;;;;;;;;;;;;16.52;47.98;100779.53;5017838;28;1215;-48
2023/04/29 10:38:27;;;;;;;;;;;;;;;16.56;47.82;100765.00;5015942;28;1223;-50
2023/04/29 10:40:52;;;;;;;;;;;;;;;17.33;47.45;100775.09;5016684;28;1088;-52
2023/04/29 10:43:22;;;;;;;;;;;;;;;16.68;48.03;100772.94;5021910;28;1127;-47
2023/04/29 10:45:47;;;;;;;;;;;;;;;16.54;47.43;100777.34;5021940;28;1967;-49
2023/04/29 10:48:13;;;;;;;;;;;;;;;17.32;47.39;100765.22;5015330;28;1163;-50
2023/04/29 10:50:47;;;;;;;;;;;;;;;16.69;48.12;100771.03;5016104;28;1238;-49
2023/04/29 10:53:13;;;;;;;;;;;;;;;16.75;48.12;100773.50;5015736;28;1425;-51
2023/04/29 10:55:39;;;;;;;;;;;;;;;17.00;47.88;100766.38;5016129;28;1234;-50
2023/04/29 10:58:04;;;;;;;;;;;;;;;16.57;47.96;100763.88;5015301;28;1222;-48
2023/04/29 11:00:30;;;;;;;;;;;;;;;16.47;47.46;100763.88;5012950;28;1242;-46
2023/04/29 11:02:56;;;;;;;;;;;;;;;17.27;47.12;100767.97;5015656;28;1281;-51
2023/04/29 11:05:31;;;;;;;;;;;;;;;16.69;47.88;100762.78;5014208;28;1902;-50
2023/04/29 11:08:11;;;;;;;;;;;;;;;17.42;47.23;100764.38;5016126;28;1183;-48
2023/04/29 11:10:37;;;;;;;;;;;;;;;16.91;48.12;100748.81;5015935;28;1191;-50
2023/04/29 11:13:21;;;;;;;;;;;;;;;16.60;47.80;100743.28;5018044;28;1250;-50
2023/04/29 11:15:47;;;;;;;;;;;;;;;16.49;47.27;100747.13;5015353;28;1231;-45
2023/04/29 11:18:13;;;;;;;;;;;;;;;16.70;46.99;100745.22;5015542;28;1243;-49
2023/04/29 11:20:57;;;;;;;;;;;;;;;17.28;47.51;100747.66;5015460;28;1261;-50
2023/04/29 11:23:23;;;;;;;;;;;;;;;16.64;48.08;100747.16;5015074;28;1231;-48
2023/04/29 11:25:49;;;;;;;;;;;;;;;16.55;47.09;100741.38;5017702;28;1971;-50
2023/04/29 11:28:14;;;;;;;;;;;;;;;17.67;46.50;100738.72;5014380;28;1306;-48
2023/04/29 11:30:40;;;;;;;;;;;;;;;16.80;47.93;100734.22;5008917;28;1235;-49
2023/04/29 11:33:07;;;;;;;;;;;;;;;16.48;47.66;100726.28;4995768;28;1239;-51
2023/04/29 11:35:33;;;;;;;;;;;;;;;16.91;47.68;100726.81;4995523;28;1283;-50
2023/04/29 11:37:58;;;;;;;;;;;;;;;17.08;47.71;100723.78;5013309;28;1199;-49
2023/04/29 11:40:24;;;;;;;;;;;;;;;17.18;48.06;100720.19;5013188;28;1240;-50
2023/04/29 11:42:50;;;;;;;;;;;;;;;18.73;45.16;100714.63;5012258;28;1326;-51
2023/04/29 11:45:16;;;;;;;;;;;;;;;17.29;47.96;100719.03;5011478;28;1906;-49
2023/04/29 11:47:42;;;;;;;;;;;;;;;16.87;48.01;100715.56;5019580;28;1132;-48
2023/04/29 11:50:09;;;;;;;;;;;;;;;16.69;47.81;100711.47;5023572;28;1021;-50
2023/04/29 11:52:35;;;;;;;;;;;;;;;16.64;47.10;100711.44;5018350;28;1250;-50
2023/04/29 11:55:01;;;;;;;;;;;;;;;16.50;46.88;100694.72;5018891;28;1504;-46
2023/04/29 11:57:27;;;;;;;;;;;;;;;16.37;46.69;100706.25;5018641;28;1255;-49
2023/04/29 11:59:52;;;;;;;;;;;;;;;16.58;46.83;100710.63;5018371;28;1246;-49
2023/04/29 12:02:21;;;;;;;;;;;;;;;17.09;47.64;100703.44;5019089;28;1025;-50
2023/04/29 12:04:46;;;;;;;;;;;;;;;16.65;47.80;100688.41;5018723;28;1946;-48
2023/04/29 12:07:15;;;;;;;;;;;;;;;16.38;47.55;100692.25;5018952;28;1326;-50
2023/04/29 12:09:42;;;;;;;;;;;;;;;17.11;47.54;100687.53;5018697;28;1251;-49
2023/04/29 12:12:08;;;;;;;;;;;;;;;16.88;48.03;100683.41;5018294;28;1305;-51
2023/04/29 12:14:33;;;;;;;;;;;;;;;16.61;47.72;100681.81;5020203;28;1246;-50
2023/04/29 12:16:59;;;;;;;;;;;;;;;16.41;47.16;100675.25;5018781;28;1239;-48
2023/04/29 12:19:24;;;;;;;;;;;;;;;16.31;47.00;100672.47;5000214;28;1286;-51
2023/04/29 12:21:51;;;;;;;;;;;;;;;16.76;47.09;100683.72;4998779;28;1238;-50
2023/04/29 12:24:16;;;;;;;;;;;;;;;16.91;47.73;100669.16;4998633;28;1178;-49
2023/04/29 12:26:43;;;;;;;;;;;;;;;16.60;47.19;100669.19;5024691;28;1906;-50
2023/04/29 12:29:09;;;;;;;;;;;;;;;17.74;46.71;100669.63;5018447;28;1019;-47
2023/04/29 12:31:35;;;;;;;;;;;;;;;16.82;47.75;100671.63;5018368;28;1147;-50
2023/04/29 12:34:02;;;;;;;;;;;;;;;16.62;47.35;100674.38;5018403;28;1102;-48
2023/04/29 12:36:28;;;;;;;;;;;;;;;16.42;47.82;100676.88;5022447;28;1063;-50
2023/04/29 12:38:54;;;;;;;;;;;;;;;16.99;47.74;100667.78;5017972;28;1094;-48
2023/04/29 12:41:34;;;;;;;;;;;;;;;16.50;47.67;100671.94;5018754;28;1158;-48
2023/04/29 12:44:00;;;;;;;;;;;;;;;16.32;47.15;100654.91;5018079;28;1072;-49
2023/04/29 12:46:25;;;;;;;;;;;;;;;17.32;47.19;100657.19;5016189;28;1974;-46
2023/04/29 12:48:51;;;;;;;;;;;;;;;16.75;47.72;100658.16;5020964;28;1043;-47
2023/04/29 12:51:16;;;;;;;;;;;;;;;16.49;47.48;100656.56;5022069;28;1135;-46